Time;durP1;ratioP1;P1;durP2;ratioP2;P2;SDS_P1;SDS_P2;PMS_P1;PMS_P2;Temp;Humidity;BMP_temperature;BMP_pressure;BME280_temperature;BME280_humidity;BME280_pressure;Samples;Min_cycle;Max_cycle;Signal;HPM_P1;HPM_P2
2021/03/04 00:00:35;;;;;;;39.55;25.75;;;7.80;99.90;;;;;;5001592;28;20054;-67
2021/03/04 00:03:03;;;;;;;39.38;26.63;;;7.70;99.90;;;;;;4992144;28;20043;-67
2021/03/04 00:05:30;;;;;;;42.72;26.70;;;7.70;99.90;;;;;;4988835;28;20053;-66
2021/03/04 00:07:57;;;;;;;38.70;25.05;;;7.70;99.90;;;;;;4988420;28;20080;-67
2021/03/04 00:10:24;;;;;;;38.20;25.50;;;7.70;99.90;;;;;;4991047;28;20052;-67
2021/03/04 00:12:52;;;;;;;40.67;25.83;;;7.70;99.90;;;;;;4991036;28;20150;-68
2021/03/04 00:15:21;;;;;;;37.50;25.63;;;7.70;99.90;;;;;;4989915;28;20046;-67
2021/03/04 00:17:48;;;;;;;37.80;24.80;;;7.70;99.90;;;;;;4997903;28;20060;-67
2021/03/04 00:20:21;;;;;;;38.20;25.95;;;7.70;99.90;;;;;;4993997;28;20062;-67
2021/03/04 00:22:47;;;;;;;37.25;24.67;;;7.70;99.90;;;;;;4997787;28;20053;-67
2021/03/04 00:25:15;;;;;;;36.97;24.13;;;7.70;99.90;;;;;;4991146;28;20087;-67
2021/03/04 00:27:41;;;;;;;36.17;24.73;;;7.70;99.90;;;;;;4990292;28;20508;-68
2021/03/04 00:30:10;;;;;;;37.40;23.92;;;7.70;99.90;;;;;;4990605;28;20054;-68
2021/03/04 00:32:36;;;;;;;38.05;25.73;;;7.60;99.90;;;;;;4989385;28;20050;-68
2021/03/04 00:35:04;;;;;;;37.22;25.45;;;7.60;99.90;;;;;;4991685;28;20481;-68
2021/03/04 00:37:31;;;;;;;36.50;24.95;;;7.60;99.90;;;;;;4990462;28;20608;-68
2021/03/04 00:39:58;;;;;;;42.78;25.60;;;7.60;99.90;;;;;;4991218;28;20061;-68
2021/03/04 00:42:24;;;;;;;36.97;23.67;;;7.60;99.90;;;;;;4994685;28;20042;-68
2021/03/04 00:44:51;;;;;;;36.50;24.92;;;7.60;99.90;;;;;;4991579;28;20043;-68
2021/03/04 00:47:17;;;;;;;38.00;26.33;;;7.60;99.90;;;;;;4990326;28;20049;-68
2021/03/04 00:49:44;;;;;;;33.63;23.38;;;7.60;99.90;;;;;;4994054;28;20057;-68
2021/03/04 00:52:10;;;;;;;34.97;24.58;;;7.60;99.90;;;;;;4994342;28;20062;-68
2021/03/04 00:54:37;;;;;;;37.22;25.10;;;7.60;99.90;;;;;;4995558;28;20046;-68
2021/03/04 00:57:04;;;;;;;41.97;25.48;;;7.60;99.90;;;;;;4994757;28;20038;-68
2021/03/04 00:59:30;;;;;;;39.38;25.05;;;7.60;99.90;;;;;;4995640;28;20085;-68
2021/03/04 01:01:57;;;;;;;35.08;24.88;;;7.60;99.90;;;;;;5003886;28;20477;-68
2021/03/04 01:04:23;;;;;;;37.13;24.48;;;7.70;99.90;;;;;;4984792;28;20066;-68
2021/03/04 01:06:50;;;;;;;38.00;25.08;;;7.60;99.90;;;;;;4988543;28;20520;-68
2021/03/04 01:09:16;;;;;;;36.75;24.30;;;7.60;99.90;;;;;;5004196;28;20054;-68
2021/03/04 01:11:43;;;;;;;37.63;23.98;;;7.60;99.90;;;;;;4994822;28;20370;-68
2021/03/04 01:14:09;;;;;;;36.38;24.23;;;7.60;99.90;;;;;;4994301;28;20050;-68
2021/03/04 01:16:36;;;;;;;38.72;24.65;;;7.60;99.90;;;;;;4988383;28;20050;-68
2021/03/04 01:19:02;;;;;;;35.75;24.80;;;7.60;99.90;;;;;;4994496;28;20057;-68
2021/03/04 01:21:29;;;;;;;42.83;25.20;;;7.70;99.90;;;;;;4993059;28;20082;-68
2021/03/04 01:23:56;;;;;;;35.30;24.88;;;7.70;99.90;;;;;;4994324;28;20129;-68
2021/03/04 01:26:23;;;;;;;41.80;25.45;;;7.70;99.90;;;;;;4994233;28;20061;-68
2021/03/04 01:28:49;;;;;;;35.75;24.80;;;7.70;99.90;;;;;;4993808;28;20432;-68
2021/03/04 01:31:15;;;;;;;37.63;24.35;;;7.70;99.90;;;;;;4988198;28;20047;-68
2021/03/04 01:33:42;;;;;;;38.22;25.33;;;7.70;99.90;;;;;;4994147;28;20046;-68
2021/03/04 01:36:08;;;;;;;42.17;26.17;;;7.70;99.90;;;;;;4994594;28;20396;-68
2021/03/04 01:38:35;;;;;;;37.00;24.77;;;7.70;99.90;;;;;;4994531;28;20079;-68
2021/03/04 01:41:01;;;;;;;37.05;23.60;;;7.70;99.90;;;;;;4994589;28;20046;-68
2021/03/04 01:43:28;;;;;;;34.47;24.65;;;7.70;99.90;;;;;;4998092;28;20133;-68
2021/03/04 01:45:54;;;;;;;37.08;24.63;;;7.70;99.90;;;;;;4993361;28;20042;-68
2021/03/04 01:48:21;;;;;;;40.20;26.55;;;7.70;99.90;;;;;;4993720;28;20105;-68
2021/03/04 01:50:48;;;;;;;37.72;25.90;;;7.70;99.90;;;;;;4993997;28;20085;-68
2021/03/04 01:53:15;;;;;;;37.58;24.63;;;7.60;99.90;;;;;;4993898;28;20412;-68
2021/03/04 01:55:42;;;;;;;38.22;25.75;;;7.60;99.90;;;;;;4993943;28;20050;-68
2021/03/04 01:58:09;;;;;;;36.25;25.58;;;7.60;99.90;;;;;;4993018;28;20129;-68
2021/03/04 02:03:59;;;;;;;36.55;24.90;;;7.60;99.90;;;;;;4986997;28;20054;-68
2021/03/04 02:06:34;;;;;;;38.88;25.20;;;7.60;99.90;;;;;;4993020;28;20480;-68
2021/03/04 02:09:02;;;;;;;39.42;25.02;;;7.60;99.90;;;;;;4993435;28;20050;-68
2021/03/04 02:11:35;;;;;;;39.78;26.83;;;7.60;99.90;;;;;;4993429;28;20054;-68
2021/03/04 02:14:07;;;;;;;35.72;24.35;;;7.60;99.90;;;;;;4993154;28;20054;-68
2021/03/04 02:16:46;;;;;;;;;;;7.50;99.90;;;;;;4986897;28;20097;-68
2021/03/04 02:19:40;;;;;;;38.13;25.65;;;7.50;99.90;;;;;;4993221;28;19928;-68
2021/03/04 02:22:18;;;;;;;39.92;24.90;;;7.50;99.90;;;;;;4987231;28;20046;-68
2021/03/04 02:25:06;;;;;;;35.30;24.80;;;7.50;99.90;;;;;;4980779;28;20057;-68
2021/03/04 02:27:35;;;;;;;41.20;26.00;;;7.50;99.90;;;;;;4993181;28;20489;-68
2021/03/04 02:30:08;;;;;;;41.72;26.15;;;7.50;99.90;;;;;;4986673;28;20058;-68
2021/03/04 02:32:41;;;;;;;39.58;26.27;;;7.50;99.90;;;;;;4990281;28;20050;-68
2021/03/04 02:35:34;;;;;;;37.53;27.83;;;7.50;99.90;;;;;;4992957;28;20054;-68
2021/03/04 02:38:14;;;;;;;36.25;24.98;;;7.50;99.90;;;;;;4981564;28;20227;-68
2021/03/04 02:40:42;;;;;;;40.35;26.27;;;7.50;99.90;;;;;;4992817;28;20050;-68
2021/03/04 02:43:12;;;;;;;36.45;25.35;;;7.60;99.90;;;;;;4993136;28;20449;-67
2021/03/04 02:45:41;;;;;;;43.58;26.83;;;7.50;99.90;;;;;;4991707;28;20050;-67
2021/03/04 02:48:13;;;;;;;38.58;25.42;;;7.60;99.90;;;;;;4992919;28;20125;-68
2021/03/04 02:50:41;;;;;;;42.13;27.05;;;7.60;99.90;;;;;;4992411;28;20046;-68
2021/03/04 02:53:09;;;;;;;37.90;25.55;;;7.60;99.90;;;;;;4991389;28;20057;-68
2021/03/04 02:55:37;;;;;;;41.80;27.65;;;7.60;99.90;;;;;;4992195;28;20093;-67
2021/03/04 02:58:07;;;;;;;40.22;26.23;;;7.60;99.90;;;;;;4992486;28;20046;-68
2021/03/04 03:00:36;;;;;;;42.42;24.50;;;7.60;99.90;;;;;;5002676;28;20053;-67
2021/03/04 03:03:07;;;;;;;39.28;26.63;;;7.60;99.90;;;;;;4992518;28;20042;-67
2021/03/04 03:05:35;;;;;;;41.22;27.25;;;7.60;99.90;;;;;;4988984;28;20047;-68
2021/03/04 03:08:03;;;;;;;48.40;28.80;;;7.70;99.90;;;;;;4989987;28;20046;-68
2021/03/04 03:10:30;;;;;;;40.50;26.52;;;7.60;99.90;;;;;;4992953;28;20481;-68
2021/03/04 03:13:00;;;;;;;38.38;25.75;;;7.60;99.90;;;;;;4992313;28;20453;-68
2021/03/04 03:15:27;;;;;;;37.33;25.88;;;7.60;99.90;;;;;;4992453;28;20523;-68
2021/03/04 03:17:54;;;;;;;43.88;27.17;;;7.60;99.90;;;;;;4991995;28;20049;-68
2021/03/04 03:20:22;;;;;;;33.25;25.13;;;7.60;99.90;;;;;;4991441;28;20104;-68
2021/03/04 03:22:50;;;;;;;39.20;25.95;;;7.60;99.90;;;;;;4992612;28;20057;-68
2021/03/04 03:25:17;;;;;;;40.85;26.38;;;7.60;99.90;;;;;;4993813;28;20042;-68
2021/03/04 03:27:45;;;;;;;40.03;26.20;;;7.60;99.90;;;;;;4992535;28;20050;-68
2021/03/04 03:30:20;;;;;;;37.90;26.80;;;7.50;99.90;;;;;;4991385;28;20050;-67
2021/03/04 03:33:01;;;;;;;37.83;25.65;;;7.50;99.90;;;;;;4992025;28;20493;-68
2021/03/04 03:35:29;;;;;;;40.50;26.55;;;7.50;99.90;;;;;;4992639;28;20058;-68
2021/03/04 03:37:56;;;;;;;39.95;25.10;;;7.50;99.90;;;;;;4990942;28;20069;-68
2021/03/04 03:40:25;;;;;;;46.45;28.00;;;7.50;99.90;;;;;;4992203;28;20050;-68
2021/03/04 03:43:00;;;;;;;44.78;28.65;;;7.50;99.90;;;;;;4991534;28;20401;-67
2021/03/04 03:45:48;;;;;;;38.10;26.15;;;7.50;99.90;;;;;;4990391;28;20488;-68
2021/03/04 03:48:18;;;;;;;41.50;26.20;;;7.50;99.90;;;;;;4991655;28;20054;-67
2021/03/04 03:50:48;;;;;;;41.53;27.10;;;7.50;99.90;;;;;;4980208;28;20043;-67
2021/03/04 03:53:16;;;;;;;45.40;27.92;;;7.50;99.90;;;;;;4990277;28;20042;-67
2021/03/04 03:55:48;;;;;;;36.95;25.35;;;7.50;99.90;;;;;;4990567;28;20050;-68
2021/03/04 03:58:20;;;;;;;37.60;24.52;;;7.50;99.90;;;;;;4991593;28;20046;-68
2021/03/04 04:00:47;;;;;;;37.08;24.85;;;7.40;99.90;;;;;;4997630;28;20057;-68
2021/03/04 04:03:14;;;;;;;40.67;25.13;;;7.40;99.90;;;;;;4991316;28;20473;-68
2021/03/04 04:05:41;;;;;;;40.00;24.77;;;7.40;99.90;;;;;;4991340;28;20089;-68
2021/03/04 04:08:09;;;;;;;37.15;24.58;;;7.30;99.90;;;;;;4991137;28;20107;-67
2021/03/04 04:10:37;;;;;;;37.63;24.92;;;7.30;99.90;;;;;;4985711;28;20043;-67
2021/03/04 04:13:17;;;;;;;33.00;23.75;;;7.20;99.90;;;;;;4977061;28;20424;-67
2021/03/04 04:15:44;;;;;;;38.38;25.55;;;7.20;99.90;;;;;;4990297;28;20056;-68
2021/03/04 04:18:11;;;;;;;38.40;24.02;;;7.20;99.90;;;;;;5000545;28;20054;-68
2021/03/04 04:20:47;;;;;;;39.10;25.27;;;7.20;99.90;;;;;;4983593;28;20061;-67
2021/03/04 04:23:14;;;;;;;36.35;24.00;;;7.20;99.90;;;;;;4992089;28;20050;-67
2021/03/04 04:25:53;;;;;;;39.40;25.17;;;7.10;99.90;;;;;;4987640;28;20054;-67
2021/03/04 04:28:24;;;;;;;39.10;23.58;;;7.10;99.90;;;;;;4996039;28;20065;-68
2021/03/04 04:30:51;;;;;;;44.63;25.55;;;7.10;99.90;;;;;;4998417;28;20551;-68
2021/03/04 04:33:17;;;;;;;36.53;24.02;;;7.10;99.90;;;;;;4994936;28;20054;-68
2021/03/04 04:35:45;;;;;;;38.80;24.48;;;7.10;99.90;;;;;;4995853;28;20081;-67
2021/03/04 04:38:12;;;;;;;35.88;23.92;;;7.00;99.90;;;;;;4993499;28;20054;-67
2021/03/04 04:40:39;;;;;;;38.75;24.52;;;7.00;99.90;;;;;;5007698;28;20057;-67
2021/03/04 04:43:06;;;;;;;36.13;24.67;;;7.00;99.90;;;;;;4994318;28;20042;-67
2021/03/04 04:45:33;;;;;;;34.90;22.95;;;7.00;99.90;;;;;;4992980;28;20049;-67
2021/03/04 04:47:59;;;;;;;34.53;23.83;;;7.00;99.90;;;;;;4994709;28;20047;-67
2021/03/04 04:50:26;;;;;;;36.95;24.10;;;7.00;99.90;;;;;;4987683;28;20054;-67
2021/03/04 04:52:53;;;;;;;38.30;24.58;;;6.90;99.90;;;;;;4993975;28;20070;-67
2021/03/04 04:55:19;;;;;;;36.85;23.52;;;6.90;99.90;;;;;;4993918;28;20085;-67
2021/03/04 04:57:46;;;;;;;36.20;24.15;;;6.90;99.90;;;;;;4993560;28;20073;-67
2021/03/04 05:00:13;;;;;;;36.10;24.70;;;7.00;99.90;;;;;;5000173;28;20416;-68
2021/03/04 05:02:39;;;;;;;39.60;24.83;;;6.90;99.90;;;;;;4997902;28;20053;-67
2021/03/04 05:05:08;;;;;;;39.65;24.77;;;7.00;99.90;;;;;;4994232;28;20133;-66
2021/03/04 05:07:35;;;;;;;37.03;26.05;;;6.90;99.90;;;;;;4993663;28;20047;-67
2021/03/04 05:10:06;;;;;;;35.65;25.25;;;6.90;99.90;;;;;;4994107;28;20049;-67
2021/03/04 05:12:33;;;;;;;38.20;24.63;;;6.90;99.90;;;;;;5005223;28;20046;-68
2021/03/04 05:14:59;;;;;;;37.42;24.80;;;6.90;99.90;;;;;;4994225;28;20058;-67
2021/03/04 05:17:26;;;;;;;38.72;24.58;;;6.80;99.90;;;;;;4994555;28;20060;-67
2021/03/04 05:19:53;;;;;;;37.47;25.27;;;6.80;99.90;;;;;;4991704;28;20042;-67
2021/03/04 05:22:19;;;;;;;37.20;24.63;;;6.80;99.90;;;;;;4995015;28;20667;-67
2021/03/04 05:24:46;;;;;;;37.97;24.23;;;6.70;99.90;;;;;;4993618;28;20401;-68
2021/03/04 05:27:12;;;;;;;37.95;24.52;;;6.70;99.90;;;;;;4993915;28;20401;-68
2021/03/04 05:29:39;;;;;;;38.75;24.52;;;6.70;99.90;;;;;;4993239;28;20492;-67
2021/03/04 05:32:06;;;;;;;43.97;27.08;;;6.70;99.90;;;;;;4993782;28;20054;-68
2021/03/04 05:34:32;;;;;;;41.38;25.15;;;6.70;99.90;;;;;;4984085;28;20055;-67
2021/03/04 05:37:00;;;;;;;37.88;24.88;;;6.70;99.90;;;;;;4988550;28;20054;-67
2021/03/04 05:39:27;;;;;;;39.38;25.10;;;6.70;99.90;;;;;;4993331;28;20056;-68
2021/03/04 05:41:57;;;;;;;36.92;24.80;;;6.70;99.90;;;;;;4994303;28;20058;-67
2021/03/04 05:44:26;;;;;;;39.03;25.58;;;6.70;99.90;;;;;;4994237;28;20050;-67
2021/03/04 05:46:54;;;;;;;40.72;24.15;;;6.80;99.90;;;;;;4993305;28;20056;-67
2021/03/04 05:49:23;;;;;;;41.47;26.38;;;6.90;99.90;;;;;;4983434;28;20504;-67
2021/03/04 05:51:58;;;;;;;40.83;25.13;;;6.90;99.90;;;;;;4993364;28;20507;-67
2021/03/04 05:54:28;;;;;;;39.45;25.58;;;6.90;99.90;;;;;;4994245;28;20047;-67
2021/03/04 05:56:58;;;;;;;41.00;24.33;;;7.00;99.90;;;;;;4993644;28;20049;-67
2021/03/04 05:59:26;;;;;;;40.63;25.65;;;7.00;99.90;;;;;;4993330;28;20046;-67
2021/03/04 06:01:53;;;;;;;41.65;23.77;;;7.00;99.90;;;;;;4995005;28;20046;-68
2021/03/04 06:04:20;;;;;;;40.30;24.25;;;7.10;99.90;;;;;;5003089;28;20540;-67
2021/03/04 06:06:47;;;;;;;44.30;24.42;;;7.10;99.90;;;;;;4991014;28;20058;-67
2021/03/04 06:09:13;;;;;;;40.38;25.33;;;7.10;99.90;;;;;;4994159;28;20148;-67
2021/03/04 06:11:40;;;;;;;41.25;23.65;;;7.10;99.90;;;;;;4985828;28;20046;-67
2021/03/04 06:14:06;;;;;;;37.67;24.65;;;7.20;99.90;;;;;;4992104;28;20244;-67
2021/03/04 06:16:33;;;;;;;38.88;23.98;;;7.30;99.90;;;;;;4992733;28;20062;-67
2021/03/04 06:19:00;;;;;;;34.60;22.75;;;7.30;99.90;;;;;;4994026;28;20424;-67
2021/03/04 06:21:28;;;;;;;37.15;24.45;;;7.30;99.90;;;;;;4993557;28;20043;-67
2021/03/04 06:23:56;;;;;;;36.10;23.77;;;7.40;99.90;;;;;;4993047;28;20241;-67
2021/03/04 06:26:24;;;;;;;37.97;23.88;;;7.40;99.90;;;;;;4993001;28;20050;-68
2021/03/04 06:28:50;;;;;;;36.55;23.80;;;7.40;99.90;;;;;;4991531;28;20046;-67
2021/03/04 06:31:20;;;;;;;35.75;23.77;;;7.40;99.90;;;;;;4993626;28;20069;-68
2021/03/04 06:33:47;;;;;;;37.08;22.55;;;7.40;99.90;;;;;;4992432;28;20046;-67
2021/03/04 06:36:15;;;;;;;40.88;25.05;;;7.40;99.90;;;;;;4993359;28;20050;-68
2021/03/04 06:38:56;;;;;;;33.47;23.63;;;7.50;99.90;;;;;;4992476;28;20793;-68
2021/03/04 06:41:23;;;;;;;38.92;25.00;;;7.50;99.90;;;;;;4992703;28;20408;-67
2021/03/04 06:44:03;;;;;;;38.95;24.45;;;7.50;99.90;;;;;;4991769;28;20392;-68
2021/03/04 06:46:46;;;;;;;43.55;25.63;;;7.60;99.90;;;;;;4991159;28;20420;-67
2021/03/04 06:49:12;;;;;;;39.88;23.17;;;7.70;99.90;;;;;;4990153;28;20209;-67
2021/03/04 06:51:45;;;;;;;36.60;23.80;;;7.70;99.90;;;;;;4992809;28;20573;-67
2021/03/04 06:54:23;;;;;;;36.47;23.35;;;7.80;99.90;;;;;;4992546;28;20062;-67
2021/03/04 06:56:49;;;;;;;37.78;25.35;;;7.90;99.90;;;;;;4991910;28;20055;-66
2021/03/04 06:59:16;;;;;;;40.13;24.52;;;7.90;99.90;;;;;;5007836;28;20051;-67
2021/03/04 07:01:43;;;;;;;36.65;24.25;;;8.00;99.90;;;;;;5002932;28;20093;-67
2021/03/04 07:04:16;;;;;;;41.10;24.48;;;8.00;99.90;;;;;;4992541;28;20046;-68
2021/03/04 07:06:46;;;;;;;38.20;25.08;;;8.00;99.90;;;;;;4992893;28;20479;-66
2021/03/04 07:09:14;;;;;;;37.13;24.05;;;8.10;99.90;;;;;;4997304;28;20046;-67
2021/03/04 07:11:44;;;;;;;36.60;24.40;;;8.10;99.90;;;;;;4988039;28;20069;-67
2021/03/04 07:14:11;;;;;;;42.15;24.98;;;8.10;99.90;;;;;;4992468;28;20046;-67
2021/03/04 07:16:43;;;;;;;38.83;24.33;;;8.10;99.90;;;;;;4977313;28;20055;-67
2021/03/04 07:19:12;;;;;;;46.00;25.70;;;8.20;99.90;;;;;;4981010;28;20054;-67
2021/03/04 07:21:44;;;;;;;38.03;24.80;;;8.20;99.90;;;;;;4979773;28;20054;-67
2021/03/04 07:24:12;;;;;;;45.35;25.95;;;8.20;99.90;;;;;;4991532;28;20038;-67
2021/03/04 07:26:38;;;;;;;41.88;25.15;;;8.30;99.90;;;;;;4989963;28;20481;-67
2021/03/04 07:29:07;;;;;;;41.65;25.25;;;8.30;99.90;;;;;;4991549;28;20050;-67
2021/03/04 07:31:34;;;;;;;37.67;24.05;;;8.30;99.90;;;;;;4995330;28;20541;-67
2021/03/04 07:34:02;;;;;;;38.70;24.52;;;8.40;99.90;;;;;;4987034;28;20109;-67
2021/03/04 07:36:29;;;;;;;43.15;23.77;;;8.50;99.90;;;;;;4992099;28;20105;-67
2021/03/04 07:39:00;;;;;;;37.60;23.67;;;8.50;99.90;;;;;;4992073;28;20058;-68
2021/03/04 07:41:44;;;;;;;40.30;26.35;;;8.60;99.90;;;;;;4985485;28;20508;-67
2021/03/04 07:44:27;;;;;;;39.63;25.15;;;8.70;99.90;;;;;;4993849;28;20053;-67
2021/03/04 07:46:54;;;;;;;;;;;8.80;99.90;;;;;;4996520;28;20064;-67
2021/03/04 07:49:32;;;;;;;43.67;24.65;;;8.90;99.90;;;;;;4998402;28;19922;-67
2021/03/04 07:52:14;;;;;;;39.15;24.23;;;9.00;99.90;;;;;;4984922;28;20038;-67
2021/03/04 07:54:43;;;;;;;40.37;23.67;;;9.10;99.90;;;;;;4985432;28;20133;-67
2021/03/04 07:57:16;;;;;;;38.60;25.70;;;9.10;99.90;;;;;;4986878;28;20286;-68
2021/03/04 07:59:57;;;;;;;41.85;25.10;;;9.20;99.90;;;;;;4990172;28;20416;-68
2021/03/04 08:02:44;;;;;;;37.78;25.23;;;9.20;99.90;;;;;;4990273;28;20050;-69
2021/03/04 08:05:18;;;;;;;37.05;24.60;;;9.30;99.90;;;;;;4986943;28;20047;-68
2021/03/04 08:07:49;;;;;;;37.33;23.55;;;9.40;99.90;;;;;;4981985;28;20081;-68
2021/03/04 08:10:21;;;;;;;36.72;22.58;;;9.40;99.90;;;;;;4984224;28;20043;-68
2021/03/04 08:12:51;;;;;;;45.60;25.40;;;9.50;99.90;;;;;;4983220;28;20050;-68
2021/03/04 08:15:20;;;;;;;33.97;24.88;;;9.50;99.90;;;;;;4982050;28;20143;-67
2021/03/04 08:17:47;;;;;;;40.75;25.88;;;9.60;99.90;;;;;;4981415;28;20408;-68
2021/03/04 08:20:16;;;;;;;38.97;25.15;;;9.50;99.90;;;;;;4983213;28;20057;-68
2021/03/04 08:22:51;;;;;;;42.63;24.23;;;9.60;99.90;;;;;;4985606;28;20061;-68
2021/03/04 08:25:23;;;;;;;35.63;23.63;;;9.70;99.90;;;;;;4988095;28;20446;-68
2021/03/04 08:27:51;;;;;;;37.92;23.10;;;9.80;99.90;;;;;;4995377;28;20046;-69
2021/03/04 08:30:38;;;;;;;44.17;23.65;;;9.80;99.90;;;;;;4994200;28;20050;-69
2021/03/04 08:33:12;;;;;;;34.90;23.80;;;10.00;99.90;;;;;;4986180;28;20053;-69
2021/03/04 08:35:46;;;;;;;39.75;23.77;;;10.10;99.90;;;;;;4996021;28;20046;-69
2021/03/04 08:38:20;;;;;;;43.08;24.27;;;10.20;99.90;;;;;;4986681;28;20516;-69
2021/03/04 08:40:52;;;;;;;35.08;23.52;;;10.30;99.90;;;;;;4988254;28;20046;-68
2021/03/04 08:43:19;;;;;;;;;;;10.40;99.90;;;;;;4980552;28;20866;-69
2021/03/04 08:45:51;;;;;;;42.00;25.95;;;10.50;99.90;;;;;;4993002;28;19933;-69
2021/03/04 08:48:18;;;;;;;34.55;22.98;;;10.60;99.90;;;;;;4983018;28;20055;-69
2021/03/04 08:50:51;;;;;;;36.70;22.38;;;10.80;99.90;;;;;;4986401;28;20090;-70
2021/03/04 08:53:19;;;;;;;35.17;21.83;;;10.90;99.90;;;;;;4982334;28;20053;-70
2021/03/04 08:55:51;;;;;;;34.20;22.00;;;10.90;99.90;;;;;;4988023;28;20056;-70
2021/03/04 08:58:19;;;;;;;33.40;24.30;;;10.90;99.90;;;;;;4994854;28;20534;-70
2021/03/04 09:00:54;;;;;;;31.85;23.88;;;11.00;99.90;;;;;;4998509;28;20392;-70
2021/03/04 09:03:26;;;;;;;31.23;20.80;;;11.10;99.90;;;;;;4984758;28;20461;-70
2021/03/04 09:06:12;;;;;;;33.45;22.30;;;11.30;99.90;;;;;;4986007;28;20053;-70
2021/03/04 09:08:50;;;;;;;33.38;20.42;;;11.30;99.90;;;;;;4978278;28;20043;-71
2021/03/04 09:11:32;;;;;;;33.63;20.83;;;11.50;99.90;;;;;;4980014;28;20129;-70
2021/03/04 09:14:07;;;;;;;34.20;21.50;;;11.60;99.90;;;;;;4985521;28;20138;-70
2021/03/04 09:16:43;;;;;;;32.70;20.10;;;11.70;99.90;;;;;;4983906;28;20057;-70
2021/03/04 09:19:11;;;;;;;32.22;20.92;;;11.90;99.90;;;;;;4981627;28;20046;-69
2021/03/04 09:21:38;;;;;;;33.30;20.40;;;12.00;99.90;;;;;;4981523;28;20053;-70
2021/03/04 09:24:08;;;;;;;29.88;20.20;;;12.20;99.90;;;;;;4980028;28;20121;-71
2021/03/04 09:26:35;;;;;;;29.58;19.98;;;12.40;99.90;;;;;;4984429;28;20480;-71
2021/03/04 09:29:02;;;;;;;31.08;20.70;;;12.60;99.90;;;;;;4994637;28;20424;-71
2021/03/04 09:31:29;;;;;;;28.33;20.17;;;12.80;99.90;;;;;;4993649;28;20528;-68
2021/03/04 09:34:03;;;;;;;32.42;20.08;;;12.80;99.90;;;;;;4992093;28;20381;-70
2021/03/04 09:36:30;;;;;;;34.03;19.52;;;12.90;99.90;;;;;;4994079;28;20050;-69
2021/03/04 09:38:58;;;;;;;28.60;19.23;;;13.00;99.90;;;;;;4991646;28;20050;-69
2021/03/04 09:41:25;;;;;;;27.42;20.23;;;13.20;99.90;;;;;;4993891;28;20064;-70
2021/03/04 09:44:03;;;;;;;28.02;19.73;;;13.30;99.90;;;;;;4992852;28;20042;-69
2021/03/04 09:46:41;;;;;;;28.65;19.50;;;13.50;99.90;;;;;;4992947;28;20109;-70
2021/03/04 09:49:15;;;;;;;30.65;19.17;;;13.60;99.90;;;;;;4992256;28;20077;-70
2021/03/04 09:51:47;;;;;;;28.52;19.95;;;13.70;99.90;;;;;;4990913;28;20050;-70
2021/03/04 09:54:32;;;;;;;22.65;17.95;;;13.70;99.90;;;;;;4995497;28;20081;-70
2021/03/04 09:57:06;;;;;;;25.88;18.13;;;13.80;99.90;;;;;;5000804;28;20485;-69
2021/03/04 09:59:43;;;;;;;29.25;19.00;;;13.80;99.90;;;;;;4993771;28;20420;-69
2021/03/04 10:02:10;;;;;;;25.02;19.25;;;13.90;99.90;;;;;;4993737;28;20066;-70
2021/03/04 10:04:37;;;;;;;29.15;19.00;;;13.80;99.90;;;;;;4993390;28;20492;-69
2021/03/04 10:07:14;;;;;;;28.52;18.52;;;13.80;99.90;;;;;;4992699;28;20481;-69
2021/03/04 10:09:47;;;;;;;34.35;20.15;;;14.20;99.90;;;;;;5002010;28;20046;-69
2021/03/04 10:12:14;;;;;;;36.42;19.88;;;14.40;99.90;;;;;;4992803;28;20050;-69
2021/03/04 10:14:51;;;;;;;30.80;19.88;;;14.10;99.90;;;;;;4993188;28;20054;-68
2021/03/04 10:17:18;;;;;;;26.63;18.35;;;14.00;99.90;;;;;;4990282;28;20064;-69
2021/03/04 10:19:45;;;;;;;27.80;19.42;;;14.10;99.90;;;;;;4993827;28;20054;-70
2021/03/04 10:22:11;;;;;;;26.55;17.30;;;14.20;99.90;;;;;;4990774;28;20052;-69
2021/03/04 10:24:38;;;;;;;25.35;17.35;;;14.10;99.90;;;;;;4983833;28;20042;-69
2021/03/04 10:27:06;;;;;;;30.38;18.65;;;14.20;99.90;;;;;;4991701;28;20050;-69
2021/03/04 10:29:34;;;;;;;26.75;17.42;;;14.00;99.90;;;;;;4991595;28;20054;-69
2021/03/04 10:32:01;;;;;;;23.98;16.88;;;14.40;99.90;;;;;;4989066;28;20485;-68
2021/03/04 10:34:27;;;;;;;27.65;17.10;;;14.30;99.90;;;;;;4991103;28;20058;-68
2021/03/04 10:36:54;;;;;;;27.25;18.45;;;14.10;99.90;;;;;;4992491;28;20058;-68
2021/03/04 10:39:23;;;;;;;28.85;18.10;;;14.10;99.90;;;;;;4983766;28;20669;-69
2021/03/04 10:41:49;;;;;;;24.95;18.15;;;14.20;99.90;;;;;;4989838;28;20141;-69
2021/03/04 10:44:16;;;;;;;23.63;18.00;;;14.40;99.90;;;;;;4991242;28;20046;-70
2021/03/04 10:46:43;;;;;;;31.45;18.50;;;14.80;99.90;;;;;;4990922;28;20054;-70
2021/03/04 10:49:10;;;;;;;32.03;19.17;;;14.70;99.90;;;;;;4992461;28;20334;-69
2021/03/04 10:51:37;;;;;;;26.20;17.08;;;14.80;99.90;;;;;;4990952;28;20050;-70
2021/03/04 10:54:03;;;;;;;29.55;19.02;;;15.10;99.90;;;;;;4992690;28;20066;-69
2021/03/04 10:56:30;;;;;;;28.90;17.60;;;15.10;99.90;;;;;;4992049;28;20046;-70
2021/03/04 10:58:56;;;;;;;31.23;18.10;;;15.00;99.90;;;;;;4992837;28;20050;-70
2021/03/04 11:01:23;;;;;;;27.75;18.17;;;15.00;99.90;;;;;;5002242;28;20724;-69
2021/03/04 11:03:50;;;;;;;31.70;18.70;;;15.10;99.90;;;;;;4991500;28;20051;-70
2021/03/04 11:06:18;;;;;;;27.40;17.98;;;15.30;99.90;;;;;;4989393;28;20046;-69
2021/03/04 11:08:44;;;;;;;31.05;18.05;;;15.10;99.90;;;;;;4991267;28;20050;-69
2021/03/04 11:11:11;;;;;;;30.85;18.58;;;15.10;99.90;;;;;;4992072;28;20046;-70
2021/03/04 11:13:37;;;;;;;30.95;18.92;;;15.10;99.90;;;;;;4992073;28;20060;-70
2021/03/04 11:16:04;;;;;;;30.42;19.20;;;14.90;99.90;;;;;;4994439;28;20050;-70
2021/03/04 11:18:31;;;;;;;25.90;18.80;;;14.80;99.90;;;;;;4989017;28;20054;-69
2021/03/04 11:20:58;;;;;;;33.67;18.40;;;14.40;99.90;;;;;;4984833;28;20050;-69
2021/03/04 11:23:24;;;;;;;27.10;18.55;;;14.60;99.90;;;;;;4989872;28;20050;-69
2021/03/04 11:26:00;;;;;;;27.38;19.40;;;15.10;99.90;;;;;;4984912;28;20050;-70
2021/03/04 11:28:27;;;;;;;31.08;18.50;;;16.00;99.90;;;;;;4989975;28;20106;-70
2021/03/04 11:30:55;;;;;;;24.40;18.20;;;16.60;99.90;;;;;;4992345;28;20400;-69
2021/03/04 11:33:22;;;;;;;28.17;19.27;;;16.70;99.90;;;;;;4988580;28;20054;-69
2021/03/04 11:35:49;;;;;;;25.20;18.80;;;16.70;99.90;;;;;;4987034;28;20046;-68
2021/03/04 11:38:16;;;;;;;31.95;18.90;;;16.70;99.90;;;;;;4990010;28;20054;-70
2021/03/04 11:40:43;;;;;;;35.63;22.35;;;16.60;99.90;;;;;;4990519;28;20058;-67
2021/03/04 11:43:10;;;;;;;28.50;19.17;;;16.90;99.90;;;;;;4991455;28;20117;-66
2021/03/04 11:45:36;;;;;;;30.17;20.17;;;17.00;99.90;;;;;;4990254;28;20437;-68
2021/03/04 11:48:03;;;;;;;26.35;19.67;;;17.10;99.90;;;;;;4989855;28;20052;-69
2021/03/04 11:50:30;;;;;;;24.60;19.00;;;17.10;99.90;;;;;;4991406;28;20563;-68
2021/03/04 11:52:56;;;;;;;25.33;19.15;;;17.30;99.90;;;;;;4991443;28;20050;-67
2021/03/04 11:55:23;;;;;;;28.58;18.83;;;17.30;99.90;;;;;;4989751;28;20182;-67
2021/03/04 11:57:49;;;;;;;39.58;20.83;;;17.50;99.90;;;;;;4990193;28;20053;-67
2021/03/04 12:00:17;;;;;;;29.50;20.33;;;18.00;99.60;;;;;;4996156;28;20050;-68
2021/03/04 12:02:43;;;;;;;31.30;19.83;;;18.10;99.20;;;;;;4994635;28;20522;-68
2021/03/04 12:05:11;;;;;;;26.17;19.80;;;18.20;98.90;;;;;;4990747;28;20047;-67
2021/03/04 12:07:37;;;;;;;24.95;19.63;;;18.20;98.60;;;;;;4991264;28;20549;-68
2021/03/04 12:10:04;;;;;;;31.40;19.45;;;18.40;98.40;;;;;;4985325;28;20046;-69
2021/03/04 12:12:31;;;;;;;27.85;19.85;;;18.50;98.10;;;;;;4984320;28;20061;-69
2021/03/04 12:14:59;;;;;;;29.55;20.45;;;18.70;97.70;;;;;;4990091;28;20475;-69
2021/03/04 12:17:25;;;;;;;28.08;20.45;;;18.20;97.70;;;;;;4990260;28;20054;-69
2021/03/04 12:19:52;;;;;;;37.17;20.95;;;18.40;98.10;;;;;;4990692;28;20051;-69
2021/03/04 12:22:19;;;;;;;30.15;22.63;;;18.90;97.40;;;;;;4989471;28;20452;-69
2021/03/04 12:24:45;;;;;;;35.40;21.88;;;19.00;96.80;;;;;;4990429;28;20089;-68
2021/03/04 12:27:12;;;;;;;31.63;23.35;;;18.60;97.20;;;;;;4990547;28;20045;-69
2021/03/04 12:29:39;;;;;;;35.65;22.55;;;18.20;97.60;;;;;;4991630;28;20137;-69
2021/03/04 12:32:06;;;;;;;29.85;22.48;;;18.10;97.90;;;;;;4990703;28;20046;-68
2021/03/04 12:34:33;;;;;;;33.30;21.92;;;17.90;97.80;;;;;;4991450;28;20157;-68
2021/03/04 12:36:59;;;;;;;36.38;21.52;;;18.10;98.10;;;;;;4991216;28;20058;-68
2021/03/04 12:39:26;;;;;;;31.50;23.25;;;18.00;97.80;;;;;;4989957;28;20510;-69
2021/03/04 12:41:54;;;;;;;30.13;22.30;;;17.80;98.10;;;;;;4982500;28;20054;-68
2021/03/04 12:44:21;;;;;;;32.78;22.98;;;17.90;98.30;;;;;;4997241;28;20050;-67
2021/03/04 12:46:47;;;;;;;36.88;24.67;;;18.30;97.80;;;;;;4992341;28;20046;-68
2021/03/04 12:49:14;;;;;;;32.20;24.02;;;18.40;97.60;;;;;;4992584;28;20050;-70